Ray Township, Michigan
Current Conditions -  °F | °C
As of 3:55 PM on Tuesday 21 Oct 2014 (Local Time) from KMTC Reporting Station
Overcast Overcast  
Wind Chill: 38°   Ceiling: 1600
Heat Index: 45°   Visibility: 12mi
Dew Point: 41°   Wind: 18mph
Humidity: 84%   Direction: 340°NNW
Pressure: 30.05"   Gusts: 31mph
Location:  42.759°N, 82.9232°W
Report Text: KMTC 211955Z 34016G27KT 12SM BKN016 OVC020 07/05 A3005 RMK SLP186 T00730048
Loading
Personal Weather Stations






























Interactive Weather Map
Tropical Storm Tracking
New forecast layout! Learn more

10-Day Weather Forecast

Advertisements
Track Severe Weather on mobile